sensor_id;sensor_type;location;lat;lon;timestamp;temperature;humidity
20457;DHT22;10387;51.102;6.848;2022-09-14T03:03:36;17.70;99.90
20457;DHT22;10387;51.102;6.848;2022-09-14T05:13:13;17.00;99.90
20457;DHT22;10387;51.102;6.848;2022-09-14T05:15:40;16.50;99.90
20457;DHT22;10387;51.102;6.848;2022-09-14T05:20:33;16.60;99.90
20457;DHT22;10387;51.102;6.848;2022-09-14T05:27:51;16.40;99.90
20457;DHT22;10387;51.102;6.848;2022-09-14T05:30:17;16.40;99.90
20457;DHT22;10387;51.102;6.848;2022-09-14T05:32:43;16.40;99.90
20457;DHT22;10387;51.102;6.848;2022-09-14T05:35:08;16.50;99.90
20457;DHT22;10387;51.102;6.848;2022-09-14T05:37:34;16.30;99.90
20457;DHT22;10387;51.102;6.848;2022-09-14T05:42:26;16.10;99.90
20457;DHT22;10387;51.102;6.848;2022-09-14T05:44:51;16.50;99.90
20457;DHT22;10387;51.102;6.848;2022-09-14T05:49:43;16.30;99.90
20457;DHT22;10387;51.102;6.848;2022-09-14T05:52:09;16.30;99.90
20457;DHT22;10387;51.102;6.848;2022-09-14T06:28:49;15.80;99.90
20457;DHT22;10387;51.102;6.848;2022-09-14T06:31:15;15.80;99.90
20457;DHT22;10387;51.102;6.848;2022-09-14T06:33:44;15.70;99.90
20457;DHT22;10387;51.102;6.848;2022-09-14T06:38:39;15.50;99.90
20457;DHT22;10387;51.102;6.848;2022-09-14T06:41:07;15.60;99.90
20457;DHT22;10387;51.102;6.848;2022-09-14T06:48:36;15.40;99.90
20457;DHT22;10387;51.102;6.848;2022-09-14T06:53:40;15.40;99.90
20457;DHT22;10387;51.102;6.848;2022-09-14T06:56:06;15.40;99.90
20457;DHT22;10387;51.102;6.848;2022-09-14T07:01:07;15.40;99.90
20457;DHT22;10387;51.102;6.848;2022-09-14T07:03:35;15.40;99.90
20457;DHT22;10387;51.102;6.848;2022-09-14T07:08:33;15.40;99.90
20457;DHT22;10387;51.102;6.848;2022-09-14T07:10:59;15.50;99.90
20457;DHT22;10387;51.102;6.848;2022-09-14T08:04:49;15.50;99.90
20457;DHT22;10387;51.102;6.848;2022-09-14T08:51:50;15.70;99.90
20457;DHT22;10387;51.102;6.848;2022-09-14T09:09:53;15.60;99.90
20457;DHT22;10387;51.102;6.848;2022-09-14T09:12:38;15.80;99.90
20457;DHT22;10387;51.102;6.848;2022-09-14T09:23:20;15.80;99.90
20457;DHT22;10387;51.102;6.848;2022-09-14T09:25:49;15.90;99.90
20457;DHT22;10387;51.102;6.848;2022-09-14T09:28:16;16.10;99.90
20457;DHT22;10387;51.102;6.848;2022-09-14T09:30:43;16.10;99.90
20457;DHT22;10387;51.102;6.848;2022-09-14T09:43:26;16.70;99.90
20457;DHT22;10387;51.102;6.848;2022-09-14T09:45:56;16.30;99.90
20457;DHT22;10387;51.102;6.848;2022-09-14T09:48:45;16.40;99.90
20457;DHT22;10387;51.102;6.848;2022-09-14T09:51:32;16.70;99.90
20457;DHT22;10387;51.102;6.848;2022-09-14T09:54:24;16.90;99.90
20457;DHT22;10387;51.102;6.848;2022-09-14T09:56:56;16.30;99.90
20457;DHT22;10387;51.102;6.848;2022-09-14T09:59:27;16.40;99.90
20457;DHT22;10387;51.102;6.848;2022-09-14T11:18:50;16.10;99.90
20457;DHT22;10387;51.102;6.848;2022-09-14T11:23:51;16.40;99.90
20457;DHT22;10387;51.102;6.848;2022-09-14T11:26:19;16.40;99.90
20457;DHT22;10387;51.102;6.848;2022-09-14T11:38:47;16.40;99.90
20457;DHT22;10387;51.102;6.848;2022-09-14T11:56:22;16.70;99.90
20457;DHT22;10387;51.102;6.848;2022-09-14T12:46:41;17.20;99.90
20457;DHT22;10387;51.102;6.848;2022-09-14T12:49:15;17.30;99.90
20457;DHT22;10387;51.102;6.848;2022-09-14T12:51:47;17.00;99.90
20457;DHT22;10387;51.102;6.848;2022-09-14T12:57:00;16.70;99.90
20457;DHT22;10387;51.102;6.848;2022-09-14T13:04:40;17.10;99.90
20457;DHT22;10387;51.102;6.848;2022-09-14T13:07:12;16.90;99.90
20457;DHT22;10387;51.102;6.848;2022-09-14T13:09:38;17.00;99.90
20457;DHT22;10387;51.102;6.848;2022-09-14T13:12:09;17.00;99.90
20457;DHT22;10387;51.102;6.848;2022-09-14T13:14:49;17.00;99.90
20457;DHT22;10387;51.102;6.848;2022-09-14T13:17:16;17.10;99.90
20457;DHT22;10387;51.102;6.848;2022-09-14T13:22:18;16.90;99.90
20457;DHT22;10387;51.102;6.848;2022-09-14T13:24:45;17.10;99.90
20457;DHT22;10387;51.102;6.848;2022-09-14T13:29:46;16.90;99.90
20457;DHT22;10387;51.102;6.848;2022-09-14T13:32:17;16.80;99.90
20457;DHT22;10387;51.102;6.848;2022-09-14T13:34:45;16.30;99.90
20457;DHT22;10387;51.102;6.848;2022-09-14T14:42:56;15.60;99.90
20457;DHT22;10387;51.102;6.848;2022-09-14T22:33:03;14.20;99.90
20457;DHT22;10387;51.102;6.848;2022-09-14T22:35:54;14.30;99.90
20457;DHT22;10387;51.102;6.848;2022-09-14T22:38:35;14.30;99.90
20457;DHT22;10387;51.102;6.848;2022-09-14T22:41:34;14.20;99.90
20457;DHT22;10387;51.102;6.848;2022-09-14T22:44:10;14.00;99.90
20457;DHT22;10387;51.102;6.848;2022-09-14T22:46:36;14.10;99.90
20457;DHT22;10387;51.102;6.848;2022-09-14T22:49:02;14.50;99.90
20457;DHT22;10387;51.102;6.848;2022-09-14T22:51:35;14.10;99.90
20457;DHT22;10387;51.102;6.848;2022-09-14T22:54:09;14.10;99.90
20457;DHT22;10387;51.102;6.848;2022-09-14T22:56:58;14.20;99.90
20457;DHT22;10387;51.102;6.848;2022-09-14T22:59:58;14.20;99.90
20457;DHT22;10387;51.102;6.848;2022-09-14T23:02:32;14.10;99.90
20457;DHT22;10387;51.102;6.848;2022-09-14T23:05:01;14.00;99.90
20457;DHT22;10387;51.102;6.848;2022-09-14T23:07:27;14.40;99.90
20457;DHT22;10387;51.102;6.848;2022-09-14T23:09:59;14.50;99.90
20457;DHT22;10387;51.102;6.848;2022-09-14T23:12:38;14.20;99.90
20457;DHT22;10387;51.102;6.848;2022-09-14T23:17:53;14.20;99.90
20457;DHT22;10387;51.102;6.848;2022-09-14T23:20:22;14.10;99.90
20457;DHT22;10387;51.102;6.848;2022-09-14T23:22:48;14.30;99.90
20457;DHT22;10387;51.102;6.848;2022-09-14T23:25:14;14.20;99.90
20457;DHT22;10387;51.102;6.848;2022-09-14T23:27:40;14.40;99.90
20457;DHT22;10387;51.102;6.848;2022-09-14T23:30:29;14.20;99.90
20457;DHT22;10387;51.102;6.848;2022-09-14T23:33:15;14.30;99.90
20457;DHT22;10387;51.102;6.848;2022-09-14T23:36:28;14.20;99.90
20457;DHT22;10387;51.102;6.848;2022-09-14T23:39:18;14.10;99.90
20457;DHT22;10387;51.102;6.848;2022-09-14T23:42:12;14.30;99.90
20457;DHT22;10387;51.102;6.848;2022-09-14T23:44:43;14.10;99.90
20457;DHT22;10387;51.102;6.848;2022-09-14T23:47:28;14.40;99.90
20457;DHT22;10387;51.102;6.848;2022-09-14T23:50:25;14.50;99.90
20457;DHT22;10387;51.102;6.848;2022-09-14T23:52:56;14.20;99.90
20457;DHT22;10387;51.102;6.848;2022-09-14T23:55:23;14.10;99.90
20457;DHT22;10387;51.102;6.848;2022-09-14T23:57:54;14.80;99.90
